sensor_id;sensor_type;location;lat;lon;timestamp;pressure;altitude;pressure_sealevel;temperature;humidity
67015;BME280;1033;52.560;13.374;2023-12-29T00:01:17;100344.84;;;8.40;89.65
67015;BME280;1033;52.560;13.374;2023-12-29T00:03:46;100337.03;;;8.58;89.37
67015;BME280;1033;52.560;13.374;2023-12-29T00:06:15;100345.94;;;8.52;89.31
67015;BME280;1033;52.560;13.374;2023-12-29T00:08:45;100338.47;;;8.54;89.78
67015;BME280;1033;52.560;13.374;2023-12-29T00:11:18;100337.66;;;8.60;88.85
67015;BME280;1033;52.560;13.374;2023-12-29T00:13:48;100336.66;;;8.61;89.08
67015;BME280;1033;52.560;13.374;2023-12-29T00:16:16;100337.03;;;8.58;89.50
67015;BME280;1033;52.560;13.374;2023-12-29T00:18:45;100324.75;;;8.49;89.06
67015;BME280;1033;52.560;13.374;2023-12-29T00:21:14;100322.91;;;8.49;89.03
67015;BME280;1033;52.560;13.374;2023-12-29T00:23:48;100321.69;;;8.52;89.15
67015;BME280;1033;52.560;13.374;2023-12-29T00:26:17;100314.63;;;8.57;89.47
67015;BME280;1033;52.560;13.374;2023-12-29T00:28:53;100316.44;;;8.44;89.25
67015;BME280;1033;52.560;13.374;2023-12-29T00:31:22;100320.00;;;8.51;88.95
67015;BME280;1033;52.560;13.374;2023-12-29T00:33:51;100310.72;;;8.66;88.29
67015;BME280;1033;52.560;13.374;2023-12-29T00:36:20;100319.63;;;8.67;88.07
67015;BME280;1033;52.560;13.374;2023-12-29T00:38:51;100312.59;;;8.66;87.75
67015;BME280;1033;52.560;13.374;2023-12-29T00:41:19;100314.00;;;8.62;88.02
67015;BME280;1033;52.560;13.374;2023-12-29T00:43:48;100309.66;;;8.61;88.19
67015;BME280;1033;52.560;13.374;2023-12-29T00:46:17;100298.06;;;8.60;87.60
67015;BME280;1033;52.560;13.374;2023-12-29T00:48:47;100296.78;;;8.50;88.05
67015;BME280;1033;52.560;13.374;2023-12-29T00:51:16;100300.31;;;8.57;87.95
67015;BME280;1033;52.560;13.374;2023-12-29T00:53:44;100292.66;;;8.60;87.42
67015;BME280;1033;52.560;13.374;2023-12-29T00:56:15;100282.69;;;8.61;87.28
67015;BME280;1033;52.560;13.374;2023-12-29T00:58:44;100288.09;;;8.61;87.33
67015;BME280;1033;52.560;13.374;2023-12-29T01:01:13;100281.88;;;8.60;87.83
67015;BME280;1033;52.560;13.374;2023-12-29T01:03:42;100282.69;;;8.61;86.99
67015;BME280;1033;52.560;13.374;2023-12-29T01:06:11;100273.97;;;8.59;86.68
67015;BME280;1033;52.560;13.374;2023-12-29T01:08:40;100271.28;;;8.59;86.60
67015;BME280;1033;52.560;13.374;2023-12-29T01:11:09;100267.94;;;8.57;86.72
67015;BME280;1033;52.560;13.374;2023-12-29T01:13:40;100275.22;;;8.63;86.23
67015;BME280;1033;52.560;13.374;2023-12-29T01:16:08;100265.28;;;8.70;86.29
67015;BME280;1033;52.560;13.374;2023-12-29T01:18:38;100264.00;;;8.59;86.01
67015;BME280;1033;52.560;13.374;2023-12-29T01:21:07;100262.75;;;8.62;85.79
67015;BME280;1033;52.560;13.374;2023-12-29T01:23:35;100257.59;;;8.67;85.45
67015;BME280;1033;52.560;13.374;2023-12-29T01:26:04;100254.88;;;8.67;85.65
67015;BME280;1033;52.560;13.374;2023-12-29T01:28:33;100249.50;;;8.73;85.41
67015;BME280;1033;52.560;13.374;2023-12-29T01:31:05;100251.56;;;8.71;85.11
67015;BME280;1033;52.560;13.374;2023-12-29T01:33:36;100251.16;;;8.68;85.17
67015;BME280;1033;52.560;13.374;2023-12-29T01:36:05;100240.38;;;8.68;84.71
67015;BME280;1033;52.560;13.374;2023-12-29T01:38:44;100250.16;;;8.76;84.45
67015;BME280;1033;52.560;13.374;2023-12-29T01:41:13;100260.31;;;8.73;85.09
67015;BME280;1033;52.560;13.374;2023-12-29T01:46:55;100249.94;;;8.77;84.87
67015;BME280;1033;52.560;13.374;2023-12-29T01:49:25;100242.88;;;8.76;84.50
67015;BME280;1033;52.560;13.374;2023-12-29T01:51:57;100243.72;;;8.70;84.67
67015;BME280;1033;52.560;13.374;2023-12-29T01:54:29;100236.22;;;8.59;84.86
67015;BME280;1033;52.560;13.374;2023-12-29T01:57:01;100230.41;;;8.62;85.09
67015;BME280;1033;52.560;13.374;2023-12-29T01:59:32;100223.97;;;8.63;84.96
67015;BME280;1033;52.560;13.374;2023-12-29T02:02:02;100230.81;;;8.59;85.29
67015;BME280;1033;52.560;13.374;2023-12-29T02:04:34;100223.53;;;8.53;85.29
67015;BME280;1033;52.560;13.374;2023-12-29T02:07:06;100214.00;;;8.57;85.62
67015;BME280;1033;52.560;13.374;2023-12-29T02:09:38;100223.38;;;8.61;85.21
67015;BME280;1033;52.560;13.374;2023-12-29T02:12:11;100218.38;;;8.58;85.45
67015;BME280;1033;52.560;13.374;2023-12-29T02:14:41;100215.44;;;8.53;85.25
67015;BME280;1033;52.560;13.374;2023-12-29T02:17:19;100209.66;;;8.62;85.16
67015;BME280;1033;52.560;13.374;2023-12-29T02:19:53;100206.56;;;8.59;85.16
67015;BME280;1033;52.560;13.374;2023-12-29T02:22:26;100199.50;;;8.58;85.37
67015;BME280;1033;52.560;13.374;2023-12-29T02:24:58;100197.22;;;8.55;85.03
67015;BME280;1033;52.560;13.374;2023-12-29T02:27:37;100199.28;;;8.53;85.43
67015;BME280;1033;52.560;13.374;2023-12-29T02:30:17;100189.53;;;8.58;85.23
67015;BME280;1033;52.560;13.374;2023-12-29T02:32:54;100188.50;;;8.53;85.53
67015;BME280;1033;52.560;13.374;2023-12-29T02:35:28;100184.13;;;8.45;86.38
67015;BME280;1033;52.560;13.374;2023-12-29T02:38:00;100172.09;;;8.41;86.16
67015;BME280;1033;52.560;13.374;2023-12-29T02:40:35;100179.38;;;8.54;85.44
67015;BME280;1033;52.560;13.374;2023-12-29T02:43:09;100181.47;;;8.65;85.35
67015;BME280;1033;52.560;13.374;2023-12-29T02:45:42;100185.41;;;8.69;85.89
67015;BME280;1033;52.560;13.374;2023-12-29T02:48:13;100172.75;;;8.76;84.71
67015;BME280;1033;52.560;13.374;2023-12-29T02:50:46;100181.44;;;8.78;84.30
67015;BME280;1033;52.560;13.374;2023-12-29T02:53:17;100177.31;;;8.95;84.14
67015;BME280;1033;52.560;13.374;2023-12-29T02:55:50;100157.78;;;8.87;83.91
67015;BME280;1033;52.560;13.374;2023-12-29T02:58:24;100161.72;;;8.97;84.02
67015;BME280;1033;52.560;13.374;2023-12-29T03:00:56;100161.09;;;8.82;84.33
67015;BME280;1033;52.560;13.374;2023-12-29T03:03:28;100158.22;;;8.84;84.32
67015;BME280;1033;52.560;13.374;2023-12-29T03:06:00;100154.47;;;8.78;85.29
67015;BME280;1033;52.560;13.374;2023-12-29T03:08:32;100156.94;;;8.86;84.56
67015;BME280;1033;52.560;13.374;2023-12-29T03:11:06;100155.94;;;8.74;84.38
67015;BME280;1033;52.560;13.374;2023-12-29T03:13:38;100155.72;;;8.95;84.41
67015;BME280;1033;52.560;13.374;2023-12-29T03:16:10;100154.88;;;8.95;83.93
67015;BME280;1033;52.560;13.374;2023-12-29T03:18:40;100151.56;;;8.86;84.13
67015;BME280;1033;52.560;13.374;2023-12-29T03:21:14;100144.28;;;8.87;84.43
67015;BME280;1033;52.560;13.374;2023-12-29T03:23:45;100149.25;;;8.96;83.74
67015;BME280;1033;52.560;13.374;2023-12-29T03:26:18;100149.91;;;8.85;83.83
67015;BME280;1033;52.560;13.374;2023-12-29T03:28:48;100138.69;;;8.88;83.55
67015;BME280;1033;52.560;13.374;2023-12-29T03:31:24;100138.66;;;9.01;83.25
67015;BME280;1033;52.560;13.374;2023-12-29T03:33:59;100124.56;;;8.99;82.87
67015;BME280;1033;52.560;13.374;2023-12-29T03:36:34;100137.03;;;9.00;82.88
67015;BME280;1033;52.560;13.374;2023-12-29T03:39:04;100134.94;;;9.02;82.94
67015;BME280;1033;52.560;13.374;2023-12-29T03:41:37;100133.06;;;8.96;82.77
67015;BME280;1033;52.560;13.374;2023-12-29T03:44:08;100126.25;;;9.00;82.74
67015;BME280;1033;52.560;13.374;2023-12-29T03:46:40;100115.00;;;8.97;83.16
67015;BME280;1033;52.560;13.374;2023-12-29T03:49:11;100124.09;;;9.15;82.79
67015;BME280;1033;52.560;13.374;2023-12-29T03:51:43;100117.06;;;9.14;82.13
67015;BME280;1033;52.560;13.374;2023-12-29T03:54:15;100108.53;;;9.18;81.82
67015;BME280;1033;52.560;13.374;2023-12-29T03:56:50;100110.84;;;9.07;82.10
67015;BME280;1033;52.560;13.374;2023-12-29T03:59:21;100112.50;;;9.08;82.17
67015;BME280;1033;52.560;13.374;2023-12-29T04:01:53;100112.47;;;9.22;81.85
67015;BME280;1033;52.560;13.374;2023-12-29T04:04:24;100100.44;;;9.18;81.81
67015;BME280;1033;52.560;13.374;2023-12-29T04:06:54;100099.81;;;9.22;82.13
67015;BME280;1033;52.560;13.374;2023-12-29T04:09:26;100095.03;;;9.18;81.60
67015;BME280;1033;52.560;13.374;2023-12-29T04:11:59;100081.34;;;9.19;81.70
67015;BME280;1033;52.560;13.374;2023-12-29T04:14:34;100072.59;;;9.24;81.38
67015;BME280;1033;52.560;13.374;2023-12-29T04:17:08;100079.09;;;9.09;81.98
67015;BME280;1033;52.560;13.374;2023-12-29T04:19:43;100079.25;;;9.21;81.96
67015;BME280;1033;52.560;13.374;2023-12-29T04:22:14;100067.22;;;9.17;81.75
67015;BME280;1033;52.560;13.374;2023-12-29T04:24:46;100061.63;;;9.19;81.52
67015;BME280;1033;52.560;13.374;2023-12-29T04:27:19;100061.38;;;9.27;81.11
67015;BME280;1033;52.560;13.374;2023-12-29T04:29:50;100057.19;;;9.31;80.76
67015;BME280;1033;52.560;13.374;2023-12-29T04:32:20;100047.50;;;9.16;81.50
67015;BME280;1033;52.560;13.374;2023-12-29T04:34:51;100049.59;;;9.08;81.87
67015;BME280;1033;52.560;13.374;2023-12-29T04:37:21;100058.94;;;9.05;82.50
67015;BME280;1033;52.560;13.374;2023-12-29T04:39:54;100047.94;;;9.13;82.20
67015;BME280;1033;52.560;13.374;2023-12-29T04:42:27;100050.63;;;9.13;82.10
67015;BME280;1033;52.560;13.374;2023-12-29T04:44:57;100043.59;;;9.06;82.03
67015;BME280;1033;52.560;13.374;2023-12-29T04:47:29;100054.00;;;8.96;82.92
67015;BME280;1033;52.560;13.374;2023-12-29T04:50:01;100052.94;;;8.97;82.88
67015;BME280;1033;52.560;13.374;2023-12-29T04:52:33;100035.16;;;8.83;83.42
67015;BME280;1033;52.560;13.374;2023-12-29T04:55:03;100036.59;;;8.85;84.15
67015;BME280;1033;52.560;13.374;2023-12-29T04:57:37;100028.13;;;8.75;84.30
67015;BME280;1033;52.560;13.374;2023-12-29T05:00:09;100039.13;;;8.73;84.95
67015;BME280;1033;52.560;13.374;2023-12-29T05:02:42;100037.06;;;8.62;85.63
67015;BME280;1033;52.560;13.374;2023-12-29T05:05:12;100031.22;;;8.72;85.38
67015;BME280;1033;52.560;13.374;2023-12-29T05:07:43;100041.63;;;8.68;85.55
67015;BME280;1033;52.560;13.374;2023-12-29T05:10:15;100030.44;;;8.65;85.85
67015;BME280;1033;52.560;13.374;2023-12-29T05:12:49;100036.22;;;8.62;86.07
67015;BME280;1033;52.560;13.374;2023-12-29T05:15:20;100034.13;;;8.77;85.65
67015;BME280;1033;52.560;13.374;2023-12-29T05:17:51;100032.06;;;8.79;85.59
67015;BME280;1033;52.560;13.374;2023-12-29T05:20:22;100042.41;;;8.89;85.07
67015;BME280;1033;52.560;13.374;2023-12-29T05:22:53;100035.34;;;8.94;84.97
67015;BME280;1033;52.560;13.374;2023-12-29T05:25:26;100037.78;;;9.02;84.75
67015;BME280;1033;52.560;13.374;2023-12-29T05:28:01;100024.94;;;9.04;84.89
67015;BME280;1033;52.560;13.374;2023-12-29T05:30:33;100021.34;;;9.10;84.41
67015;BME280;1033;52.560;13.374;2023-12-29T05:33:04;100023.59;;;9.20;84.17
67015;BME280;1033;52.560;13.374;2023-12-29T05:35:35;100025.66;;;9.25;84.38
67015;BME280;1033;52.560;13.374;2023-12-29T05:38:06;100022.94;;;9.25;83.65
67015;BME280;1033;52.560;13.374;2023-12-29T05:40:37;100016.31;;;9.27;83.78
67015;BME280;1033;52.560;13.374;2023-12-29T05:43:11;100016.69;;;9.31;83.35
67015;BME280;1033;52.560;13.374;2023-12-29T05:45:43;100016.06;;;9.35;83.68
67015;BME280;1033;52.560;13.374;2023-12-29T05:48:14;100017.31;;;9.33;83.11
67015;BME280;1033;52.560;13.374;2023-12-29T05:50:46;100020.63;;;9.35;83.48
67015;BME280;1033;52.560;13.374;2023-12-29T05:53:17;100037.25;;;9.38;83.32
67015;BME280;1033;52.560;13.374;2023-12-29T05:55:48;100030.63;;;9.34;83.18
67015;BME280;1033;52.560;13.374;2023-12-29T05:58:20;100022.94;;;9.25;84.19
67015;BME280;1033;52.560;13.374;2023-12-29T06:00:54;100023.94;;;9.37;83.28
67015;BME280;1033;52.560;13.374;2023-12-29T06:03:25;100014.84;;;9.25;83.64
67015;BME280;1033;52.560;13.374;2023-12-29T06:05:56;100023.13;;;9.30;83.64
67015;BME280;1033;52.560;13.374;2023-12-29T06:08:28;100020.22;;;9.38;83.35
67015;BME280;1033;52.560;13.374;2023-12-29T06:10:59;100022.28;;;9.36;83.37
67015;BME280;1033;52.560;13.374;2023-12-29T06:13:32;100000.28;;;9.39;82.62
67015;BME280;1033;52.560;13.374;2023-12-29T06:16:03;100011.41;;;9.49;82.47
67015;BME280;1033;52.560;13.374;2023-12-29T06:18:36;100017.06;;;9.41;82.86
67015;BME280;1033;52.560;13.374;2023-12-29T06:21:07;100013.69;;;9.52;81.69
67015;BME280;1033;52.560;13.374;2023-12-29T06:23:39;100018.06;;;9.53;82.20
67015;BME280;1033;52.560;13.374;2023-12-29T06:26:17;100015.53;;;9.58;80.97
67015;BME280;1033;52.560;13.374;2023-12-29T06:28:49;100021.31;;;9.62;81.30
67015;BME280;1033;52.560;13.374;2023-12-29T06:31:20;100041.44;;;9.66;80.02
67015;BME280;1033;52.560;13.374;2023-12-29T06:33:52;100052.22;;;9.72;80.05
67015;BME280;1033;52.560;13.374;2023-12-29T06:36:24;100055.75;;;9.73;80.07
67015;BME280;1033;52.560;13.374;2023-12-29T06:38:54;100054.56;;;9.62;80.91
67015;BME280;1033;52.560;13.374;2023-12-29T06:41:26;100042.09;;;9.61;80.40
67015;BME280;1033;52.560;13.374;2023-12-29T06:43:58;100045.34;;;9.76;79.67
67015;BME280;1033;52.560;13.374;2023-12-29T06:46:28;100030.44;;;9.67;79.83
67015;BME280;1033;52.560;13.374;2023-12-29T06:48:59;100039.06;;;9.82;78.97
67015;BME280;1033;52.560;13.374;2023-12-29T06:51:30;100023.91;;;9.81;79.10
67015;BME280;1033;52.560;13.374;2023-12-29T06:54:03;100033.25;;;9.79;79.29
67015;BME280;1033;52.560;13.374;2023-12-29T06:56:35;100020.41;;;9.74;79.05
67015;BME280;1033;52.560;13.374;2023-12-29T06:59:08;100016.47;;;9.70;79.33
67015;BME280;1033;52.560;13.374;2023-12-29T07:01:40;100021.69;;;9.65;79.87
67015;BME280;1033;52.560;13.374;2023-12-29T07:04:11;100030.25;;;9.62;79.76
67015;BME280;1033;52.560;13.374;2023-12-29T07:06:43;100025.50;;;9.57;80.23
67015;BME280;1033;52.560;13.374;2023-12-29T07:09:15;100027.97;;;9.59;80.28
67015;BME280;1033;52.560;13.374;2023-12-29T07:11:48;100030.91;;;9.57;80.47
67015;BME280;1033;52.560;13.374;2023-12-29T07:14:21;100041.66;;;9.64;80.56
67015;BME280;1033;52.560;13.374;2023-12-29T07:16:52;100039.97;;;9.70;80.69
67015;BME280;1033;52.560;13.374;2023-12-29T07:19:24;100036.19;;;9.77;79.69
67015;BME280;1033;52.560;13.374;2023-12-29T07:21:57;100049.03;;;9.82;79.44
67015;BME280;1033;52.560;13.374;2023-12-29T07:24:31;100036.09;;;9.90;80.14
67015;BME280;1033;52.560;13.374;2023-12-29T07:27:04;100048.56;;;9.91;79.20
67015;BME280;1033;52.560;13.374;2023-12-29T07:29:37;100056.84;;;9.96;79.08
67015;BME280;1033;52.560;13.374;2023-12-29T07:32:07;100052.47;;;9.95;79.45
67015;BME280;1033;52.560;13.374;2023-12-29T07:34:42;100054.91;;;10.03;78.93
67015;BME280;1033;52.560;13.374;2023-12-29T07:37:14;100058.09;;;9.94;78.81
67015;BME280;1033;52.560;13.374;2023-12-29T07:39:45;100056.03;;;9.96;79.02
67015;BME280;1033;52.560;13.374;2023-12-29T07:42:16;100047.72;;;9.91;79.21
67015;BME280;1033;52.560;13.374;2023-12-29T07:44:51;100053.69;;;9.99;79.12
67015;BME280;1033;52.560;13.374;2023-12-29T07:47:24;100058.66;;;10.02;79.21
67015;BME280;1033;52.560;13.374;2023-12-29T07:49:56;100062.25;;;9.96;79.35
67015;BME280;1033;52.560;13.374;2023-12-29T07:52:28;100054.16;;;9.96;79.10
67015;BME280;1033;52.560;13.374;2023-12-29T07:55:00;100058.31;;;9.92;79.44
67015;BME280;1033;52.560;13.374;2023-12-29T07:57:31;100064.69;;;10.04;79.03
67015;BME280;1033;52.560;13.374;2023-12-29T08:00:17;100064.22;;;10.08;78.90
67015;BME280;1033;52.560;13.374;2023-12-29T08:02:49;100061.13;;;10.11;79.23
67015;BME280;1033;52.560;13.374;2023-12-29T08:05:20;100060.19;;;10.23;78.49
67015;BME280;1033;52.560;13.374;2023-12-29T08:07:51;100064.53;;;10.31;78.32
67015;BME280;1033;52.560;13.374;2023-12-29T08:10:21;100073.59;;;10.36;78.06
67015;BME280;1033;52.560;13.374;2023-12-29T08:12:52;100074.50;;;10.30;77.80
67015;BME280;1033;52.560;13.374;2023-12-29T08:15:25;100076.09;;;10.38;77.53
67015;BME280;1033;52.560;13.374;2023-12-29T08:17:59;100078.22;;;10.36;77.43
67015;BME280;1033;52.560;13.374;2023-12-29T08:20:29;100078.97;;;10.43;77.13
67015;BME280;1033;52.560;13.374;2023-12-29T08:23:00;100074.84;;;10.40;77.29
67015;BME280;1033;52.560;13.374;2023-12-29T08:25:33;100073.56;;;10.43;76.95
67015;BME280;1033;52.560;13.374;2023-12-29T08:28:07;100067.94;;;10.44;77.19
67015;BME280;1033;52.560;13.374;2023-12-29T08:30:42;100061.41;;;10.52;76.66
67015;BME280;1033;52.560;13.374;2023-12-29T08:33:15;100075.09;;;10.57;76.43
67015;BME280;1033;52.560;13.374;2023-12-29T08:35:46;100072.69;;;10.49;76.98
67015;BME280;1033;52.560;13.374;2023-12-29T08:38:17;100082.34;;;10.38;77.26
67015;BME280;1033;52.560;13.374;2023-12-29T08:40:49;100077.94;;;10.44;77.20
67015;BME280;1033;52.560;13.374;2023-12-29T08:43:22;100075.97;;;10.51;77.17
67015;BME280;1033;52.560;13.374;2023-12-29T08:45:55;100079.75;;;10.50;76.85
67015;BME280;1033;52.560;13.374;2023-12-29T08:48:27;100079.59;;;10.45;77.41
67015;BME280;1033;52.560;13.374;2023-12-29T08:50:59;100075.72;;;10.59;77.17
67015;BME280;1033;52.560;13.374;2023-12-29T08:53:30;100064.91;;;10.59;76.63
67015;BME280;1033;52.560;13.374;2023-12-29T08:56:04;100066.81;;;10.52;76.81
67015;BME280;1033;52.560;13.374;2023-12-29T08:58:37;100064.19;;;10.45;77.42
67015;BME280;1033;52.560;13.374;2023-12-29T09:01:09;100072.06;;;10.47;77.49
67015;BME280;1033;52.560;13.374;2023-12-29T09:03:40;100060.59;;;10.52;77.02
67015;BME280;1033;52.560;13.374;2023-12-29T09:06:11;100080.88;;;10.61;76.97
67015;BME280;1033;52.560;13.374;2023-12-29T09:08:43;100074.22;;;10.63;76.75
67015;BME280;1033;52.560;13.374;2023-12-29T09:11:14;100081.13;;;10.59;77.01
67015;BME280;1033;52.560;13.374;2023-12-29T09:13:46;100083.44;;;10.56;76.94
67015;BME280;1033;52.560;13.374;2023-12-29T09:16:19;100073.44;;;10.56;77.01
67015;BME280;1033;52.560;13.374;2023-12-29T09:18:50;100082.13;;;10.65;77.14
67015;BME280;1033;52.560;13.374;2023-12-29T09:21:22;100071.22;;;10.71;76.82
67015;BME280;1033;52.560;13.374;2023-12-29T09:23:52;100091.09;;;10.83;76.31
67015;BME280;1033;52.560;13.374;2023-12-29T09:26:23;100088.97;;;10.85;76.03
67015;BME280;1033;52.560;13.374;2023-12-29T09:28:54;100090.03;;;10.84;75.94
67015;BME280;1033;52.560;13.374;2023-12-29T09:31:27;100079.81;;;10.86;75.87
67015;BME280;1033;52.560;13.374;2023-12-29T09:33:58;100092.31;;;10.87;76.19
67015;BME280;1033;52.560;13.374;2023-12-29T09:36:29;100088.72;;;10.94;76.07
67015;BME280;1033;52.560;13.374;2023-12-29T09:38:59;100082.69;;;11.10;75.17
67015;BME280;1033;52.560;13.374;2023-12-29T09:41:34;100095.69;;;11.19;74.49
67015;BME280;1033;52.560;13.374;2023-12-29T09:44:14;100093.97;;;11.25;74.34
67015;BME280;1033;52.560;13.374;2023-12-29T09:46:50;100091.13;;;11.20;73.99
67015;BME280;1033;52.560;13.374;2023-12-29T09:49:24;100084.03;;;11.19;74.03
67015;BME280;1033;52.560;13.374;2023-12-29T09:51:57;100092.03;;;11.32;73.58
67015;BME280;1033;52.560;13.374;2023-12-29T09:54:30;100095.47;;;11.39;73.42
67015;BME280;1033;52.560;13.374;2023-12-29T09:57:03;100081.13;;;11.20;73.40
67015;BME280;1033;52.560;13.374;2023-12-29T09:59:35;100083.88;;;11.14;74.07
67015;BME280;1033;52.560;13.374;2023-12-29T10:02:14;100074.72;;;11.15;74.06
67015;BME280;1033;52.560;13.374;2023-12-29T10:04:45;100070.34;;;11.14;73.47
67015;BME280;1033;52.560;13.374;2023-12-29T10:07:24;100079.59;;;11.43;72.98
67015;BME280;1033;52.560;13.374;2023-12-29T10:09:57;100082.56;;;11.41;72.20
67015;BME280;1033;52.560;13.374;2023-12-29T10:12:29;100080.41;;;11.43;71.88
67015;BME280;1033;52.560;13.374;2023-12-29T10:15:10;100086.78;;;11.37;72.05
67015;BME280;1033;52.560;13.374;2023-12-29T10:17:51;100072.91;;;11.45;72.35
67015;BME280;1033;52.560;13.374;2023-12-29T10:20:31;100078.63;;;11.55;71.47
67015;BME280;1033;52.560;13.374;2023-12-29T10:23:08;100078.69;;;11.49;71.42
67015;BME280;1033;52.560;13.374;2023-12-29T10:25:43;100061.72;;;11.42;71.53
67015;BME280;1033;52.560;13.374;2023-12-29T10:28:17;100068.50;;;11.62;70.90
67015;BME280;1033;52.560;13.374;2023-12-29T10:30:49;100056.38;;;11.83;70.32
67015;BME280;1033;52.560;13.374;2023-12-29T10:33:22;100053.44;;;11.85;69.80
67015;BME280;1033;52.560;13.374;2023-12-29T10:35:58;100054.00;;;11.87;69.81
67015;BME280;1033;52.560;13.374;2023-12-29T10:38:32;100046.16;;;11.97;69.50
67015;BME280;1033;52.560;13.374;2023-12-29T10:41:13;100035.38;;;11.79;69.25
67015;BME280;1033;52.560;13.374;2023-12-29T10:43:46;100050.13;;;11.83;69.06
67015;BME280;1033;52.560;13.374;2023-12-29T10:46:21;100067.00;;;11.85;68.84
67015;BME280;1033;52.560;13.374;2023-12-29T10:48:53;100075.75;;;11.98;68.62
67015;BME280;1033;52.560;13.374;2023-12-29T10:51:27;100054.56;;;11.77;68.89
67015;BME280;1033;52.560;13.374;2023-12-29T10:53:58;100053.66;;;11.83;69.30
67015;BME280;1033;52.560;13.374;2023-12-29T10:56:28;100066.25;;;11.77;68.86
67015;BME280;1033;52.560;13.374;2023-12-29T10:59:01;100078.41;;;11.87;68.72
67015;BME280;1033;52.560;13.374;2023-12-29T11:01:34;100075.69;;;11.87;68.48
67015;BME280;1033;52.560;13.374;2023-12-29T11:04:08;100073.97;;;11.92;68.54
67015;BME280;1033;52.560;13.374;2023-12-29T11:06:42;100074.00;;;12.04;68.24
67015;BME280;1033;52.560;13.374;2023-12-29T11:09:28;100073.50;;;11.95;68.20
67015;BME280;1033;52.560;13.374;2023-12-29T11:12:04;100080.22;;;11.93;68.32
67015;BME280;1033;52.560;13.374;2023-12-29T11:14:37;100080.22;;;11.93;68.29
67015;BME280;1033;52.560;13.374;2023-12-29T11:17:11;100085.06;;;11.91;67.74
67015;BME280;1033;52.560;13.374;2023-12-29T11:19:45;100073.94;;;11.81;67.89
67015;BME280;1033;52.560;13.374;2023-12-29T11:22:18;100062.75;;;11.89;67.81
67015;BME280;1033;52.560;13.374;2023-12-29T11:24:49;100053.19;;;11.86;68.18
67015;BME280;1033;52.560;13.374;2023-12-29T11:27:22;100061.16;;;11.99;68.02
67015;BME280;1033;52.560;13.374;2023-12-29T11:29:53;100066.31;;;11.89;67.59
67015;BME280;1033;52.560;13.374;2023-12-29T11:32:34;100058.84;;;11.85;67.55
67015;BME280;1033;52.560;13.374;2023-12-29T11:35:17;100057.34;;;11.89;67.25
67015;BME280;1033;52.560;13.374;2023-12-29T11:38:07;100053.31;;;11.80;67.67
67015;BME280;1033;52.560;13.374;2023-12-29T11:40:46;100051.31;;;11.87;67.24
67015;BME280;1033;52.560;13.374;2023-12-29T11:43:20;100048.16;;;11.90;67.15
67015;BME280;1033;52.560;13.374;2023-12-29T11:45:51;100041.75;;;11.84;67.54
67015;BME280;1033;52.560;13.374;2023-12-29T11:48:55;100037.03;;;11.80;67.92
67015;BME280;1033;52.560;13.374;2023-12-29T11:51:34;100022.44;;;11.92;67.42
67015;BME280;1033;52.560;13.374;2023-12-29T11:54:07;100027.72;;;11.87;67.92
67015;BME280;1033;52.560;13.374;2023-12-29T11:56:39;100028.44;;;11.83;67.79
67015;BME280;1033;52.560;13.374;2023-12-29T11:59:18;100024.44;;;11.85;67.93
67015;BME280;1033;52.560;13.374;2023-12-29T12:01:51;100022.44;;;11.81;68.27
67015;BME280;1033;52.560;13.374;2023-12-29T12:04:37;100026.06;;;11.86;67.81
67015;BME280;1033;52.560;13.374;2023-12-29T12:07:17;100025.41;;;11.91;67.70
67015;BME280;1033;52.560;13.374;2023-12-29T12:10:30;100027.38;;;11.84;67.83
67015;BME280;1033;52.560;13.374;2023-12-29T12:13:02;100036.56;;;11.83;68.15
67015;BME280;1033;52.560;13.374;2023-12-29T12:15:34;100037.47;;;11.76;68.20
67015;BME280;1033;52.560;13.374;2023-12-29T12:18:10;100025.00;;;11.75;68.78
67015;BME280;1033;52.560;13.374;2023-12-29T12:20:41;100020.28;;;11.53;69.13
67015;BME280;1033;52.560;13.374;2023-12-29T12:23:18;100027.16;;;11.67;69.43
67015;BME280;1033;52.560;13.374;2023-12-29T12:25:50;100039.91;;;11.66;69.08
67015;BME280;1033;52.560;13.374;2023-12-29T12:28:30;100039.78;;;11.61;69.91
67015;BME280;1033;52.560;13.374;2023-12-29T12:31:06;100044.97;;;11.45;72.48
67015;BME280;1033;52.560;13.374;2023-12-29T12:33:39;100027.63;;;11.34;73.39
67015;BME280;1033;52.560;13.374;2023-12-29T12:36:09;100036.06;;;11.26;75.50
67015;BME280;1033;52.560;13.374;2023-12-29T12:38:51;100025.22;;;11.26;75.84
67015;BME280;1033;52.560;13.374;2023-12-29T12:41:24;100035.75;;;11.16;76.52
67015;BME280;1033;52.560;13.374;2023-12-29T12:44:08;100024.16;;;11.09;79.42
67015;BME280;1033;52.560;13.374;2023-12-29T12:47:01;100031.09;;;10.86;81.07
67015;BME280;1033;52.560;13.374;2023-12-29T12:49:46;100022.63;;;10.83;82.64
67015;BME280;1033;52.560;13.374;2023-12-29T12:52:17;100020.75;;;10.83;83.98
67015;BME280;1033;52.560;13.374;2023-12-29T12:54:54;100013.66;;;10.82;84.96
67015;BME280;1033;52.560;13.374;2023-12-29T12:57:27;100010.19;;;10.75;86.05
67015;BME280;1033;52.560;13.374;2023-12-29T13:00:00;100013.28;;;10.79;87.77
67015;BME280;1033;52.560;13.374;2023-12-29T13:02:32;100014.13;;;10.79;87.36
67015;BME280;1033;52.560;13.374;2023-12-29T13:05:05;100006.91;;;10.73;87.30
67015;BME280;1033;52.560;13.374;2023-12-29T13:07:36;100002.00;;;10.64;87.36
67015;BME280;1033;52.560;13.374;2023-12-29T13:10:10;100002.16;;;10.69;86.84
67015;BME280;1033;52.560;13.374;2023-12-29T13:12:52;100007.06;;;10.78;87.16
67015;BME280;1033;52.560;13.374;2023-12-29T13:15:24;100000.56;;;10.61;87.46
67015;BME280;1033;52.560;13.374;2023-12-29T13:17:54;99985.09;;;10.68;86.62
67015;BME280;1033;52.560;13.374;2023-12-29T13:20:26;99986.91;;;10.74;86.40
67015;BME280;1033;52.560;13.374;2023-12-29T13:22:56;99980.88;;;10.72;86.83
67015;BME280;1033;52.560;13.374;2023-12-29T13:25:29;99980.88;;;10.72;87.07
67015;BME280;1033;52.560;13.374;2023-12-29T13:28:03;99979.00;;;10.73;86.85